Time;durP1;ratioP1;P1;durP2;ratioP2;P2;SDS_P1;SDS_P2;PMS_P1;PMS_P2;Temp;Humidity;BMP_temperature;BMP_pressure;BME280_temperature;BME280_humidity;BME280_pressure;Samples;Min_cycle;Max_cycle;Signal;HPM_P1;HPM_P2
2023/10/19 00:01:49;;;;;;;3.47;1.40;;;11.20;99.90;;;;;;5073998;28;20460;-80
2023/10/19 00:04:14;;;;;;;6.30;2.27;;;11.20;99.90;;;;;;5073533;28;20995;-81
2023/10/19 00:06:44;;;;;;;3.40;1.67;;;11.10;99.90;;;;;;5073509;28;20477;-80
2023/10/19 00:09:11;;;;;;;11.53;2.10;;;11.10;99.90;;;;;;5073858;28;20285;-80
2023/10/19 00:11:40;;;;;;;2.50;1.73;;;11.20;99.90;;;;;;5073784;28;20444;-80
2023/10/19 00:14:15;;;;;;;3.30;1.80;;;11.20;99.90;;;;;;5073680;28;20465;-80
2023/10/19 00:16:44;;;;;;;1.40;1.30;;;11.30;99.90;;;;;;5073738;28;20512;-80
2023/10/19 00:19:11;;;;;;;2.40;1.80;;;11.30;99.90;;;;;;5073659;28;20457;-80
2023/10/19 00:21:50;;;;;;;2.30;1.70;;;11.40;99.90;;;;;;5073304;28;20969;-80
2023/10/19 00:24:18;;;;;;;2.37;1.40;;;11.40;99.90;;;;;;5073296;28;20555;-80
2023/10/19 00:26:45;;;;;;;0.97;0.97;;;11.30;99.90;;;;;;5073481;28;20926;-80
2023/10/19 00:29:30;;;;;;;1.33;1.03;;;11.40;99.90;;;;;;5073500;28;20452;-81
2023/10/19 00:31:58;;;;;;;5.13;2.43;;;11.40;99.90;;;;;;5073241;28;20910;-81
2023/10/19 00:34:25;;;;;;;2.10;1.90;;;11.40;99.90;;;;;;5073099;28;21058;-81
2023/10/19 00:36:52;;;;;;;4.67;2.13;;;11.40;99.90;;;;;;5073112;28;20987;-80
2023/10/19 00:39:21;;;;;;;2.50;1.80;;;11.50;99.90;;;;;;5073111;28;20470;-80
2023/10/19 00:41:49;;;;;;;1.97;1.50;;;11.50;99.90;;;;;;5073371;28;20447;-80
2023/10/19 00:44:24;;;;;;;1.87;1.20;;;11.50;99.90;;;;;;5073314;28;20464;-80
2023/10/19 00:47:00;;;;;;;3.23;1.40;;;11.60;99.90;;;;;;5073330;28;20507;-80
2023/10/19 00:49:27;;;;;;;3.47;1.40;;;11.60;99.90;;;;;;5073341;28;20441;-80
2023/10/19 00:52:02;;;;;;;2.40;1.27;;;11.60;99.90;;;;;;5072828;28;20997;-81
2023/10/19 00:54:40;;;;;;;1.23;1.13;;;11.70;99.90;;;;;;5073188;28;20480;-81
2023/10/19 00:57:08;;;;;;;3.43;2.10;;;11.70;99.90;;;;;;5073012;28;20996;-80
2023/10/19 00:59:42;;;;;;;2.83;1.40;;;11.70;99.90;;;;;;5072928;28;20433;-80
2023/10/19 01:02:19;;;;;;;1.27;1.00;;;11.70;99.90;;;;;;5073258;28;20544;-80
2023/10/19 01:04:50;;;;;;;5.10;2.37;;;11.70;99.90;;;;;;5072939;28;20520;-81
2023/10/19 01:07:22;;;;;;;2.00;1.03;;;11.90;99.90;;;;;;5074762;28;20828;-81
2023/10/19 01:09:52;;;;;;;3.30;1.63;;;11.80;99.90;;;;;;5077366;28;20491;-80
2023/10/19 01:12:25;;;;;;;1.00;0.90;;;11.80;99.90;;;;;;5077614;28;20440;-81
2023/10/19 01:15:12;;;;;;;3.00;1.53;;;11.80;99.90;;;;;;5076903;28;20429;-81
2023/10/19 01:17:42;;;;;;;1.47;1.20;;;11.80;99.90;;;;;;5076821;28;20440;-80
2023/10/19 01:20:21;;;;;;;3.10;1.63;;;11.90;99.90;;;;;;5077101;28;20524;-80
2023/10/19 01:23:05;;;;;;;1.40;1.40;;;11.90;99.90;;;;;;5077039;28;20471;-80
2023/10/19 01:25:34;;;;;;;1.73;1.43;;;11.90;99.90;;;;;;5077552;28;20418;-80
2023/10/19 01:28:07;;;;;;;1.43;1.33;;;12.00;99.90;;;;;;5076858;28;20485;-80
2023/10/19 01:30:34;;;;;;;1.73;1.20;;;12.00;99.90;;;;;;5076904;28;20464;-80
2023/10/19 01:33:02;;;;;;;3.13;2.17;;;12.00;99.90;;;;;;5076531;28;20484;-80
2023/10/19 01:36:10;;;;;;;3.50;1.87;;;12.00;99.90;;;;;;5076776;28;20449;-80
2023/10/19 01:38:17;;;;;;;1.00;0.87;;;11.90;99.90;;;;;;5076268;28;20476;-80
2023/10/19 01:40:48;;;;;;;2.47;1.00;;;12.10;99.90;;;;;;5076660;28;20459;-81
2023/10/19 01:43:20;;;;;;;1.90;1.70;;;12.10;99.90;;;;;;5076588;28;20452;-81
2023/10/19 01:45:48;;;;;;;1.77;1.37;;;12.10;99.90;;;;;;5076538;28;20453;-81
2023/10/19 01:48:15;;;;;;;1.80;0.90;;;12.10;99.90;;;;;;5076492;28;20441;-81
2023/10/19 01:50:42;;;;;;;7.10;1.50;;;12.10;99.90;;;;;;5076069;28;20575;-81
2023/10/19 01:53:15;;;;;;;1.67;1.13;;;12.10;99.90;;;;;;5076402;28;20874;-81
2023/10/19 01:55:43;;;;;;;1.63;1.10;;;12.10;99.90;;;;;;5076177;28;20435;-81
2023/10/19 01:58:09;;;;;;;1.60;1.13;;;12.10;99.90;;;;;;5076358;28;20471;-81
2023/10/19 02:00:37;;;;;;;2.50;1.27;;;12.10;99.90;;;;;;5076301;28;20447;-81
2023/10/19 02:03:07;;;;;;;16.97;1.60;;;12.20;99.90;;;;;;5075873;28;20518;-81
2023/10/19 02:05:39;;;;;;;1.30;0.90;;;12.10;99.90;;;;;;5076182;28;20440;-81
2023/10/19 02:08:07;;;;;;;1.13;1.03;;;12.10;99.90;;;;;;5076130;28;20472;-81
2023/10/19 02:10:34;;;;;;;1.50;1.10;;;12.20;99.90;;;;;;5075810;28;20818;-81
2023/10/19 02:13:06;;;;;;;1.30;1.20;;;12.20;99.90;;;;;;5076005;28;20461;-81
2023/10/19 02:15:34;;;;;;;2.43;1.00;;;12.10;99.90;;;;;;5076053;28;20432;-81
2023/10/19 02:18:01;;;;;;;0.90;0.87;;;12.20;99.90;;;;;;5075807;28;20447;-81
2023/10/19 02:20:28;;;;;;;1.97;1.57;;;12.10;99.90;;;;;;5075388;28;20499;-81
2023/10/19 02:22:57;;;;;;;1.80;1.50;;;12.10;99.90;;;;;;5075859;28;20476;-81
2023/10/19 02:25:25;;;;;;;1.30;0.90;;;12.10;99.90;;;;;;5075867;28;20452;-81
2023/10/19 02:27:52;;;;;;;1.10;1.00;;;12.10;99.90;;;;;;5075429;28;20484;-81
2023/10/19 02:30:20;;;;;;;1.20;1.10;;;12.00;99.90;;;;;;5075799;28;20451;-82
2023/10/19 02:32:48;;;;;;;1.30;1.20;;;12.00;99.90;;;;;;5075689;28;20468;-81
2023/10/19 02:35:14;;;;;;;1.60;1.50;;;11.90;99.90;;;;;;5075669;28;20507;-81
2023/10/19 02:37:41;;;;;;;1.73;1.20;;;11.90;99.90;;;;;;5075592;28;20445;-81
2023/10/19 02:40:19;;;;;;;1.27;1.17;;;11.90;99.90;;;;;;5075617;28;20519;-81
2023/10/19 02:42:47;;;;;;;4.80;1.60;;;11.90;99.90;;;;;;5075459;28;20483;-81
2023/10/19 02:45:15;;;;;;;2.60;1.50;;;11.80;99.90;;;;;;5075510;28;20455;-81
2023/10/19 02:47:44;;;;;;;1.23;1.10;;;11.80;99.90;;;;;;5075359;28;20472;-81
2023/10/19 02:50:13;;;;;;;3.33;1.53;;;11.80;99.90;;;;;;5075135;28;20476;-81
2023/10/19 02:52:41;;;;;;;1.07;0.97;;;11.70;99.90;;;;;;5075317;28;20556;-81
2023/10/19 02:55:09;;;;;;;1.50;0.90;;;11.70;99.90;;;;;;5075331;28;20455;-81
2023/10/19 02:57:37;;;;;;;1.37;1.30;;;11.70;99.90;;;;;;5074948;28;20437;-81
2023/10/19 03:00:10;;;;;;;2.03;1.00;;;11.60;99.90;;;;;;5075197;28;20448;-81
2023/10/19 03:02:38;;;;;;;1.20;1.00;;;11.70;99.90;;;;;;5074827;28;20526;-81
2023/10/19 03:05:14;;;;;;;2.57;1.87;;;11.60;99.90;;;;;;5075100;28;20441;-81
2023/10/19 03:07:43;;;;;;;2.03;1.20;;;11.60;99.90;;;;;;5075038;28;20476;-81
2023/10/19 03:10:22;;;;;;;2.10;1.30;;;11.60;99.90;;;;;;5074728;28;20972;-81
2023/10/19 03:12:50;;;;;;;0.97;0.97;;;11.60;99.90;;;;;;5074890;28;20468;-81
2023/10/19 03:15:17;;;;;;;0.90;0.70;;;11.60;99.90;;;;;;5074693;28;20806;-81
2023/10/19 03:17:44;;;;;;;1.47;1.33;;;11.60;99.90;;;;;;5075110;28;20444;-81
2023/10/19 03:20:11;;;;;;;1.03;1.03;;;11.50;99.90;;;;;;5074474;28;20972;-81
2023/10/19 03:22:38;;;;;;;1.87;1.10;;;11.60;99.90;;;;;;5074703;28;20508;-82
2023/10/19 03:25:44;;;;;;;1.37;1.27;;;11.60;99.90;;;;;;5074707;28;20502;-81
2023/10/19 03:28:08;;;;;;;1.33;1.13;;;11.60;99.90;;;;;;5074114;28;20513;-81
2023/10/19 03:30:38;;;;;;;3.70;1.00;;;11.60;99.90;;;;;;5073606;28;20520;-81
2023/10/19 03:33:05;;;;;;;0.97;0.93;;;11.50;99.90;;;;;;5074508;28;20464;-81
2023/10/19 03:35:34;;;;;;;2.17;1.93;;;11.60;99.90;;;;;;5074448;28;20451;-81
2023/10/19 03:38:07;;;;;;;1.97;1.13;;;11.60;99.90;;;;;;5074435;28;20449;-81
2023/10/19 03:40:38;;;;;;;1.23;1.13;;;11.60;99.90;;;;;;5074091;28;20959;-81
2023/10/19 03:43:16;;;;;;;2.40;0.97;;;11.60;99.90;;;;;;5074346;28;20464;-81
2023/10/19 03:45:47;;;;;;;0.97;0.90;;;11.60;99.90;;;;;;5074183;28;20463;-81
2023/10/19 03:48:16;;;;;;;1.63;1.30;;;11.60;99.90;;;;;;5073980;28;20469;-81
2023/10/19 03:50:44;;;;;;;0.93;0.83;;;11.60;99.90;;;;;;5073827;28;20813;-81
2023/10/19 03:53:12;;;;;;;2.37;1.10;;;11.60;99.90;;;;;;5073800;28;20544;-81
2023/10/19 03:55:43;;;;;;;4.33;0.80;;;11.60;99.90;;;;;;5074137;28;20459;-81
2023/10/19 03:58:11;;;;;;;1.90;1.53;;;11.60;99.90;;;;;;5074066;28;20425;-81
2023/10/19 04:00:38;;;;;;;2.10;1.53;;;11.60;99.90;;;;;;5073705;28;20965;-81
2023/10/19 04:03:05;;;;;;;0.80;0.80;;;11.70;99.90;;;;;;5073609;28;20480;-81
2023/10/19 04:05:37;;;;;;;0.80;0.70;;;11.70;99.90;;;;;;5073571;28;20803;-81
2023/10/19 04:08:12;;;;;;;0.93;0.93;;;11.80;99.90;;;;;;5073626;28;20543;-81
2023/10/19 04:10:44;;;;;;;1.27;0.83;;;11.80;99.90;;;;;;5073881;28;20429;-81
2023/10/19 04:13:12;;;;;;;1.53;0.50;;;11.90;99.90;;;;;;5073467;28;20986;-81
2023/10/19 04:15:39;;;;;;;1.73;0.93;;;11.90;99.90;;;;;;5073446;28;20968;-81
2023/10/19 04:18:09;;;;;;;1.00;0.93;;;12.00;99.90;;;;;;5073772;28;20440;-81
2023/10/19 04:20:42;;;;;;;1.77;0.90;;;12.00;99.90;;;;;;5073737;28;20875;-81
2023/10/19 04:23:14;;;;;;;0.90;0.73;;;12.00;99.90;;;;;;5073625;28;20530;-81
2023/10/19 04:25:40;;;;;;;3.00;1.20;;;12.10;99.90;;;;;;5074210;28;20778;-81
2023/10/19 04:28:09;;;;;;;1.03;0.93;;;12.10;99.90;;;;;;5073462;28;20495;-81
2023/10/19 04:30:37;;;;;;;1.00;0.90;;;12.10;99.90;;;;;;5073209;28;20946;-81
2023/10/19 04:33:08;;;;;;;0.90;0.90;;;12.10;99.90;;;;;;5073451;28;20560;-82
2023/10/19 04:35:35;;;;;;;1.10;1.00;;;12.10;99.90;;;;;;5073421;28;20448;-82
2023/10/19 04:38:06;;;;;;;1.13;1.00;;;12.10;99.90;;;;;;5073426;28;20437;-81
2023/10/19 04:40:35;;;;;;;1.60;1.20;;;12.10;99.90;;;;;;5073459;28;20468;-81
2023/10/19 04:43:04;;;;;;;0.80;0.70;;;12.10;99.90;;;;;;5072942;28;20526;-81
2023/10/19 04:45:30;;;;;;;1.20;1.10;;;12.20;99.90;;;;;;5073134;28;20512;-81
2023/10/19 04:47:58;;;;;;;17.83;1.20;;;12.20;99.90;;;;;;5072969;28;20846;-81
2023/10/19 04:50:24;;;;;;;1.70;0.90;;;12.20;99.90;;;;;;5072993;28;20484;-81
2023/10/19 04:52:52;;;;;;;0.77;0.77;;;12.20;99.90;;;;;;5073512;28;20548;-81
2023/10/19 04:55:19;;;;;;;4.10;1.10;;;12.30;99.90;;;;;;5072947;28;20449;-81
2023/10/19 04:57:47;;;;;;;0.93;0.90;;;12.20;99.90;;;;;;5072962;28;20956;-81
2023/10/19 05:00:15;;;;;;;1.80;1.13;;;12.20;99.90;;;;;;5073223;28;20452;-81
2023/10/19 05:02:42;;;;;;;1.53;0.80;;;12.20;99.90;;;;;;5073116;28;20526;-81
2023/10/19 05:05:09;;;;;;;2.80;0.90;;;12.30;99.90;;;;;;5073170;28;20445;-81
2023/10/19 05:07:36;;;;;;;5.90;1.10;;;12.20;99.90;;;;;;5073026;28;20491;-81
2023/10/19 05:10:05;;;;;;;1.43;1.10;;;12.20;99.90;;;;;;5073151;28;20471;-81
2023/10/19 05:12:32;;;;;;;1.27;1.13;;;12.30;99.90;;;;;;5073043;28;20564;-81
2023/10/19 05:15:00;;;;;;;1.67;1.10;;;12.20;99.90;;;;;;5073114;28;20447;-81
2023/10/19 05:17:27;;;;;;;1.20;1.03;;;12.20;99.90;;;;;;5073090;28;20437;-81
2023/10/19 05:19:53;;;;;;;2.60;1.17;;;12.20;99.90;;;;;;5073045;28;20444;-81
2023/10/19 05:22:21;;;;;;;0.80;0.80;;;12.20;99.90;;;;;;5072978;28;20452;-81
2023/10/19 05:24:48;;;;;;;2.40;1.07;;;12.20;99.90;;;;;;5072673;28;20445;-81
2023/10/19 05:27:15;;;;;;;1.40;1.00;;;12.10;99.90;;;;;;5072881;28;20530;-81
2023/10/19 05:29:42;;;;;;;2.33;1.33;;;12.20;99.90;;;;;;5073046;28;20821;-81
2023/10/19 05:32:10;;;;;;;0.80;0.80;;;12.20;99.90;;;;;;5072977;28;20445;-81
2023/10/19 05:34:36;;;;;;;2.27;0.97;;;12.20;99.90;;;;;;5072862;28;20464;-81
2023/10/19 05:37:05;;;;;;;2.30;1.43;;;12.30;99.90;;;;;;5072608;28;20447;-81
2023/10/19 05:39:33;;;;;;;1.70;0.97;;;12.20;99.90;;;;;;5072857;28;20563;-81
2023/10/19 05:42:01;;;;;;;1.90;0.90;;;12.20;99.90;;;;;;5072800;28;20480;-81
2023/10/19 05:44:28;;;;;;;1.63;0.80;;;12.20;99.90;;;;;;5072750;28;20465;-81
2023/10/19 05:46:55;;;;;;;0.80;0.70;;;12.30;99.90;;;;;;5072435;28;20945;-81
2023/10/19 05:49:24;;;;;;;1.37;0.80;;;12.30;99.90;;;;;;5072733;28;20460;-81
2023/10/19 05:51:51;;;;;;;3.33;1.43;;;12.30;99.90;;;;;;5072287;28;20484;-81
2023/10/19 05:54:18;;;;;;;3.23;1.53;;;12.30;99.90;;;;;;5073698;28;20475;-81
2023/10/19 05:56:45;;;;;;;5.33;1.10;;;12.40;99.90;;;;;;5076126;28;20437;-81
2023/10/19 05:59:13;;;;;;;2.63;1.00;;;12.50;99.90;;;;;;5076338;28;20782;-81
2023/10/19 06:01:40;;;;;;;2.17;1.30;;;12.40;99.90;;;;;;5076342;28;20444;-81
2023/10/19 06:04:07;;;;;;;1.80;1.20;;;12.50;99.90;;;;;;5076237;28;20471;-81
2023/10/19 06:06:36;;;;;;;2.00;0.87;;;12.40;99.90;;;;;;5075928;28;20933;-81
2023/10/19 06:09:04;;;;;;;2.20;1.50;;;12.40;99.90;;;;;;5076105;28;20532;-81
2023/10/19 06:11:32;;;;;;;1.07;0.80;;;12.40;99.90;;;;;;5076080;28;20502;-81
2023/10/19 06:13:59;;;;;;;2.53;1.27;;;12.40;99.90;;;;;;5076010;28;20456;-81
2023/10/19 06:16:27;;;;;;;1.23;1.10;;;12.50;99.90;;;;;;5076050;28;20498;-81
2023/10/19 06:18:55;;;;;;;1.63;1.20;;;12.50;99.90;;;;;;5075937;28;20445;-81
2023/10/19 06:21:23;;;;;;;1.47;1.07;;;12.50;99.90;;;;;;5075969;28;20445;-81
2023/10/19 06:23:52;;;;;;;1.40;1.10;;;12.50;99.90;;;;;;5075822;28;20494;-81
2023/10/19 06:26:19;;;;;;;3.03;1.80;;;12.40;99.90;;;;;;5075881;28;20445;-81
2023/10/19 06:28:46;;;;;;;1.20;1.10;;;12.50;99.90;;;;;;5075716;28;20511;-81
2023/10/19 06:31:14;;;;;;;0.97;0.83;;;12.40;99.90;;;;;;5075762;28;20453;-81
2023/10/19 06:33:42;;;;;;;1.90;1.00;;;12.40;99.90;;;;;;5075290;28;20471;-81
2023/10/19 06:36:09;;;;;;;1.53;0.90;;;12.50;99.90;;;;;;5075647;28;20449;-81
2023/10/19 06:38:35;;;;;;;5.40;1.87;;;12.50;99.90;;;;;;5075343;28;20440;-81
2023/10/19 06:41:12;;;;;;;1.80;1.10;;;12.60;99.90;;;;;;5075654;28;20451;-81
2023/10/19 06:43:39;;;;;;;5.33;1.50;;;12.60;99.90;;;;;;5075529;28;20542;-81
2023/10/19 06:46:05;;;;;;;1.90;1.70;;;12.50;99.90;;;;;;5075493;28;20514;-81
2023/10/19 06:48:32;;;;;;;1.63;1.13;;;12.60;99.90;;;;;;5075394;28;20834;-81
2023/10/19 06:51:00;;;;;;;2.70;1.87;;;12.60;99.90;;;;;;5075028;28;20473;-81
2023/10/19 06:53:27;;;;;;;1.93;1.53;;;12.60;99.90;;;;;;5075306;28;20468;-81
2023/10/19 06:55:54;;;;;;;2.70;1.73;;;12.60;99.90;;;;;;5075357;28;20445;-80
2023/10/19 06:58:26;;;;;;;1.87;1.77;;;12.70;99.90;;;;;;5075319;28;20431;-81
2023/10/19 07:00:59;;;;;;;1.20;1.10;;;12.70;99.90;;;;;;5074946;28;20832;-81
2023/10/19 07:03:28;;;;;;;3.00;1.27;;;12.60;99.90;;;;;;5075147;28;20468;-81
2023/10/19 07:05:56;;;;;;;1.47;1.30;;;12.70;99.90;;;;;;5074513;28;20445;-81
2023/10/19 07:08:22;;;;;;;1.73;1.47;;;12.70;99.90;;;;;;5075075;28;20465;-81
2023/10/19 07:10:50;;;;;;;3.20;1.33;;;12.70;99.90;;;;;;5075037;28;20440;-81
2023/10/19 07:13:17;;;;;;;1.30;1.13;;;12.80;99.90;;;;;;5074597;28;20483;-81
2023/10/19 07:15:47;;;;;;;2.13;1.30;;;12.80;99.90;;;;;;5074761;28;20447;-81
2023/10/19 07:18:14;;;;;;;2.10;1.50;;;12.90;99.90;;;;;;5074853;28;20796;-81
2023/10/19 07:20:42;;;;;;;2.03;1.73;;;12.90;99.90;;;;;;5074488;28;20437;-81
2023/10/19 07:23:18;;;;;;;3.70;2.30;;;12.90;99.90;;;;;;5074687;28;20472;-81
2023/10/19 07:25:45;;;;;;;3.37;1.43;;;13.00;99.90;;;;;;5074760;28;20447;-81
2023/10/19 07:28:13;;;;;;;1.40;1.27;;;13.00;99.90;;;;;;5074441;28;20476;-81
2023/10/19 07:30:41;;;;;;;1.23;1.07;;;13.00;99.90;;;;;;5074676;28;20491;-81
2023/10/19 07:33:09;;;;;;;1.17;0.80;;;13.10;99.90;;;;;;5074206;28;21043;-81
2023/10/19 07:35:38;;;;;;;1.17;0.83;;;13.10;99.90;;;;;;5074534;28;20444;-81
2023/10/19 07:38:07;;;;;;;1.73;1.00;;;13.10;99.90;;;;;;5074440;28;20490;-81
2023/10/19 07:40:34;;;;;;;1.67;1.20;;;13.20;99.90;;;;;;5074381;28;20876;-81
2023/10/19 07:43:01;;;;;;;4.00;2.17;;;13.20;99.90;;;;;;5074212;28;20457;-81
2023/10/19 07:45:28;;;;;;;1.50;1.40;;;13.20;99.90;;;;;;5074069;28;20510;-81
2023/10/19 07:47:55;;;;;;;4.10;1.50;;;13.30;99.90;;;;;;5074185;28;20481;-81
2023/10/19 07:50:23;;;;;;;1.93;1.10;;;13.40;99.90;;;;;;5073893;28;20526;-81
2023/10/19 07:52:52;;;;;;;1.60;1.47;;;13.50;99.90;;;;;;5074395;28;20468;-81
2023/10/19 07:55:20;;;;;;;1.90;0.90;;;13.50;99.90;;;;;;5073873;28;20998;-81
2023/10/19 07:57:50;;;;;;;1.10;1.00;;;13.60;99.90;;;;;;5073870;28;20429;-81
2023/10/19 08:00:18;;;;;;;1.20;1.13;;;13.60;99.90;;;;;;5074386;28;20790;-81
2023/10/19 08:02:45;;;;;;;1.83;1.23;;;13.60;99.90;;;;;;5073632;28;20969;-82
2023/10/19 08:05:13;;;;;;;4.07;1.90;;;13.60;99.90;;;;;;5073653;28;20456;-80
2023/10/19 08:07:42;;;;;;;1.23;1.13;;;13.70;99.90;;;;;;5073823;28;20456;-81
2023/10/19 08:10:11;;;;;;;1.23;1.13;;;13.70;99.90;;;;;;5073924;28;20542;-81
2023/10/19 08:12:41;;;;;;;1.80;1.17;;;13.70;99.90;;;;;;5073729;28;20969;-81
2023/10/19 08:15:11;;;;;;;1.83;1.27;;;13.70;99.90;;;;;;5073786;28;20445;-81
2023/10/19 08:17:38;;;;;;;1.67;1.20;;;13.70;99.90;;;;;;5072834;28;20489;-81
2023/10/19 08:20:08;;;;;;;1.00;1.00;;;13.90;99.90;;;;;;5073869;28;20500;-81
2023/10/19 08:22:36;;;;;;;1.43;1.10;;;13.90;99.90;;;;;;5073641;28;20468;-81
2023/10/19 08:25:11;;;;;;;2.37;1.97;;;14.10;99.90;;;;;;5073658;28;20451;-82
2023/10/19 08:27:39;;;;;;;1.33;0.93;;;14.30;99.90;;;;;;5073709;28;20436;-83
2023/10/19 08:30:08;;;;;;;1.30;1.00;;;14.40;99.90;;;;;;5073658;28;20515;-81
2023/10/19 08:32:35;;;;;;;1.47;0.90;;;14.50;99.90;;;;;;5073153;28;20834;-81
2023/10/19 08:35:02;;;;;;;3.90;1.60;;;14.60;99.90;;;;;;5073532;28;20441;-81
2023/10/19 08:37:29;;;;;;;3.40;1.33;;;14.70;99.90;;;;;;5073491;28;20437;-81
2023/10/19 08:39:56;;;;;;;1.20;1.10;;;14.80;99.90;;;;;;5073223;28;20775;-81
2023/10/19 08:42:24;;;;;;;1.60;0.90;;;14.90;99.90;;;;;;5073052;28;20449;-81
2023/10/19 08:44:51;;;;;;;1.20;0.97;;;14.90;99.90;;;;;;5073426;28;20433;-81
2023/10/19 08:47:18;;;;;;;4.20;1.23;;;15.00;99.90;;;;;;5073368;28;20443;-81
2023/10/19 08:49:45;;;;;;;1.67;1.37;;;15.10;99.90;;;;;;5073064;28;20492;-81
2023/10/19 08:52:15;;;;;;;1.97;1.73;;;15.30;99.90;;;;;;5073237;28;20425;-81
2023/10/19 08:54:41;;;;;;;1.10;0.90;;;15.50;99.90;;;;;;5073309;28;20444;-81
2023/10/19 08:57:08;;;;;;;1.80;1.30;;;15.60;99.90;;;;;;5073088;28;20429;-81
2023/10/19 08:59:38;;;;;;;1.13;0.87;;;15.60;99.90;;;;;;5073163;28;20449;-81
2023/10/19 09:02:06;;;;;;;1.00;1.00;;;15.50;99.90;;;;;;5072905;28;20973;-82
2023/10/19 09:04:34;;;;;;;1.07;1.00;;;15.50;99.90;;;;;;5073120;28;20936;-81
2023/10/19 09:07:06;;;;;;;0.80;0.80;;;15.50;99.90;;;;;;5073207;28;20447;-81
2023/10/19 09:09:34;;;;;;;2.50;1.33;;;15.50;99.90;;;;;;5073114;28;20465;-81
2023/10/19 09:12:03;;;;;;;1.00;0.90;;;15.40;99.90;;;;;;5072823;28;20827;-81
2023/10/19 09:14:33;;;;;;;1.80;1.63;;;15.40;99.90;;;;;;5072868;28;20473;-81
2023/10/19 09:17:03;;;;;;;1.43;1.03;;;15.50;99.90;;;;;;5073143;28;20422;-81
2023/10/19 09:19:41;;;;;;;1.10;1.00;;;15.60;99.90;;;;;;5072715;28;20456;-81
2023/10/19 09:22:16;;;;;;;0.80;0.80;;;15.60;99.90;;;;;;5072753;28;20437;-81
2023/10/19 09:24:44;;;;;;;2.27;1.10;;;15.80;99.90;;;;;;5073705;28;20459;-81
2023/10/19 09:27:12;;;;;;;1.83;0.83;;;16.30;99.90;;;;;;5072663;28;20543;-81
2023/10/19 09:29:39;;;;;;;2.87;0.70;;;16.50;99.90;;;;;;5076810;28;20484;-81
2023/10/19 09:32:08;;;;;;;0.70;0.70;;;16.50;99.90;;;;;;5076595;28;20460;-81
2023/10/19 09:34:36;;;;;;;3.73;1.07;;;16.50;99.90;;;;;;5076780;28;20465;-81
2023/10/19 09:37:04;;;;;;;6.33;1.33;;;16.60;99.90;;;;;;5076530;28;20448;-81
2023/10/19 09:39:34;;;;;;;1.33;0.93;;;16.60;99.90;;;;;;5076805;28;20445;-81
2023/10/19 09:42:05;;;;;;;2.47;1.17;;;16.50;99.90;;;;;;5076466;28;20433;-81
2023/10/19 09:44:38;;;;;;;7.20;1.40;;;16.40;99.90;;;;;;5076586;28;20464;-81
2023/10/19 09:47:09;;;;;;;2.13;1.20;;;16.40;99.90;;;;;;5076320;28;20918;-81
2023/10/19 09:49:36;;;;;;;6.80;1.17;;;16.20;99.90;;;;;;5076347;28;20555;-81
2023/10/19 09:52:04;;;;;;;2.70;1.43;;;16.10;99.90;;;;;;5076222;28;20444;-81
2023/10/19 09:54:47;;;;;;;0.93;0.80;;;16.00;99.90;;;;;;5076081;28;20465;-81
2023/10/19 09:57:19;;;;;;;2.40;1.00;;;15.90;99.90;;;;;;5076402;28;20451;-81
2023/10/19 09:59:50;;;;;;;3.80;1.13;;;15.90;99.90;;;;;;5076431;28;20421;-81
2023/10/19 10:02:21;;;;;;;2.40;0.93;;;15.80;99.90;;;;;;5076481;28;20502;-81
2023/10/19 10:04:48;;;;;;;0.93;0.73;;;15.70;99.90;;;;;;5075980;28;20433;-81
2023/10/19 10:07:16;;;;;;;1.17;1.07;;;15.70;99.90;;;;;;5076228;28;20543;-81
2023/10/19 10:09:44;;;;;;;1.83;1.00;;;15.70;99.90;;;;;;5075820;28;21001;-81
2023/10/19 10:12:20;;;;;;;5.17;1.20;;;15.70;99.90;;;;;;5075767;28;20445;-81
2023/10/19 10:14:58;;;;;;;1.03;1.00;;;15.70;99.90;;;;;;5075752;28;20528;-81
2023/10/19 10:17:27;;;;;;;1.13;1.00;;;15.70;99.90;;;;;;5075777;28;20452;-81
2023/10/19 10:19:57;;;;;;;6.10;1.10;;;15.70;99.90;;;;;;5075634;28;20808;-81
2023/10/19 10:22:24;;;;;;;1.37;1.00;;;15.70;99.90;;;;;;5075871;28;20449;-81
2023/10/19 10:24:56;;;;;;;2.20;0.80;;;15.70;99.90;;;;;;5075934;28;20451;-81
2023/10/19 10:27:23;;;;;;;0.80;0.80;;;15.70;99.90;;;;;;5075606;28;20433;-81
2023/10/19 10:29:58;;;;;;;0.73;0.70;;;15.60;99.90;;;;;;5075448;28;20538;-81
2023/10/19 10:32:47;;;;;;;1.53;0.80;;;15.50;99.90;;;;;;5075416;28;20484;-82
2023/10/19 10:35:47;;;;;;;1.00;0.90;;;15.60;99.90;;;;;;5075763;28;20437;-81
2023/10/19 10:38:14;;;;;;;3.90;1.00;;;15.70;99.90;;;;;;5075307;28;20445;-81
2023/10/19 10:40:43;;;;;;;4.40;1.00;;;15.70;99.90;;;;;;5074780;28;20452;-81
2023/10/19 10:43:11;;;;;;;6.00;1.00;;;15.80;99.90;;;;;;5075259;28;20456;-81
2023/10/19 10:45:38;;;;;;;0.90;0.63;;;15.70;99.90;;;;;;5075565;28;20445;-81
2023/10/19 10:48:13;;;;;;;2.53;0.80;;;15.70;99.90;;;;;;5075068;28;20827;-81
2023/10/19 10:50:41;;;;;;;0.73;0.63;;;15.80;99.90;;;;;;5075082;28;20519;-81
2023/10/19 10:53:08;;;;;;;1.53;0.70;;;15.80;99.90;;;;;;5075056;28;20469;-81
2023/10/19 10:55:35;;;;;;;1.30;0.80;;;15.80;99.90;;;;;;5075193;28;20453;-81
2023/10/19 10:58:02;;;;;;;1.33;1.07;;;15.80;99.90;;;;;;5074982;28;20444;-81
2023/10/19 11:00:30;;;;;;;0.93;0.93;;;15.70;99.90;;;;;;5074932;28;20948;-81
2023/10/19 11:03:07;;;;;;;1.30;0.80;;;15.70;99.90;;;;;;5075172;28;20818;-81
2023/10/19 11:05:36;;;;;;;0.83;0.83;;;15.60;99.90;;;;;;5075563;28;20484;-78
2023/10/19 11:08:13;;;;;;;1.93;1.20;;;15.50;99.90;;;;;;5074790;28;20476;-82
2023/10/19 11:10:42;;;;;;;2.97;1.33;;;15.40;99.90;;;;;;5075032;28;20560;-78
2023/10/19 11:13:11;;;;;;;0.80;0.70;;;15.40;99.90;;;;;;5074650;28;20555;-79
2023/10/19 11:15:38;;;;;;;1.80;1.20;;;15.30;99.90;;;;;;5074527;28;20444;-81
2023/10/19 11:18:07;;;;;;;1.20;1.00;;;15.10;99.90;;;;;;5076151;28;20460;-78
2023/10/19 11:20:35;;;;;;;0.93;0.80;;;15.10;99.90;;;;;;5075650;28;20449;-81
2023/10/19 11:23:02;;;;;;;1.17;0.97;;;15.10;99.90;;;;;;5074768;28;20808;-81
2023/10/19 11:25:31;;;;;;;1.03;0.80;;;15.00;99.90;;;;;;5074833;28;20813;-81
2023/10/19 11:27:59;;;;;;;0.60;0.60;;;14.90;99.90;;;;;;5074703;28;21015;-81
2023/10/19 11:30:28;;;;;;;4.20;0.90;;;14.80;99.90;;;;;;5074839;28;20485;-81
2023/10/19 11:32:57;;;;;;;5.93;1.23;;;14.80;99.90;;;;;;5075022;28;20825;-81
2023/10/19 11:35:25;;;;;;;1.07;1.00;;;14.80;99.90;;;;;;5075827;28;20535;-81
2023/10/19 11:37:55;;;;;;;1.63;0.67;;;14.80;99.90;;;;;;5075814;28;21067;-81
2023/10/19 11:40:22;;;;;;;1.30;1.07;;;14.80;99.90;;;;;;5076928;28;20444;-81
2023/10/19 11:42:50;;;;;;;1.23;0.77;;;14.80;99.90;;;;;;5075793;28;20468;-81
2023/10/19 11:45:17;;;;;;;1.37;1.00;;;14.90;99.90;;;;;;5076786;28;20453;-81
2023/10/19 11:47:44;;;;;;;1.10;0.73;;;14.90;99.90;;;;;;5076557;28;20452;-81
2023/10/19 11:50:15;;;;;;;1.90;1.23;;;15.00;99.90;;;;;;5075209;28;20584;-81
2023/10/19 11:52:42;;;;;;;1.30;0.83;;;14.90;99.90;;;;;;5074132;28;20475;-81
2023/10/19 11:55:10;;;;;;;2.57;1.03;;;14.90;99.90;;;;;;5074645;28;21007;-81
2023/10/19 11:57:37;;;;;;;1.20;0.90;;;14.80;99.90;;;;;;5075130;28;20441;-81
2023/10/19 12:00:08;;;;;;;0.60;0.60;;;14.80;99.90;;;;;;5074966;28;20444;-81
2023/10/19 12:02:37;;;;;;;1.03;0.80;;;14.70;99.90;;;;;;5075555;28;20497;-81
2023/10/19 12:05:04;;;;;;;1.23;0.97;;;14.70;99.90;;;;;;5075378;28;20453;-81
2023/10/19 12:07:32;;;;;;;1.27;0.90;;;14.70;99.90;;;;;;5074734;28;20991;-81
2023/10/19 12:09:59;;;;;;;0.63;0.63;;;14.70;99.90;;;;;;5073885;28;20476;-81
2023/10/19 12:12:27;;;;;;;1.70;0.87;;;14.60;99.90;;;;;;5073665;28;20452;-81
2023/10/19 12:14:55;;;;;;;1.57;1.10;;;14.60;99.90;;;;;;5074051;28;20445;-82
2023/10/19 12:17:26;;;;;;;2.13;0.60;;;14.60;99.90;;;;;;5073744;28;20444;-81
2023/10/19 12:19:52;;;;;;;0.87;0.87;;;14.60;99.90;;;;;;5073460;28;20434;-81
2023/10/19 12:22:20;;;;;;;0.60;0.60;;;14.60;99.90;;;;;;5073653;28;20524;-82
2023/10/19 12:24:48;;;;;;;4.83;0.63;;;14.60;99.90;;;;;;5073373;28;20449;-82
2023/10/19 12:27:14;;;;;;;0.90;0.90;;;14.60;99.90;;;;;;5073614;28;20539;-82
2023/10/19 12:29:43;;;;;;;1.23;0.60;;;14.60;99.90;;;;;;5073362;28;20491;-82
2023/10/19 12:32:12;;;;;;;0.83;0.73;;;14.60;99.90;;;;;;5073308;28;20941;-82
2023/10/19 12:34:41;;;;;;;1.57;0.83;;;14.60;99.90;;;;;;5073242;28;20448;-81
2023/10/19 12:37:10;;;;;;;1.20;1.10;;;14.60;99.90;;;;;;5073751;28;20834;-82
2023/10/19 12:39:42;;;;;;;0.60;0.50;;;14.70;99.90;;;;;;5073747;28;20856;-82
2023/10/19 12:42:09;;;;;;;0.90;0.87;;;14.60;99.90;;;;;;5073773;28;20433;-82
2023/10/19 12:44:40;;;;;;;1.23;0.80;;;14.70;99.90;;;;;;5073082;28;20472;-82
2023/10/19 12:47:11;;;;;;;3.13;0.90;;;14.70;99.90;;;;;;5073122;28;20469;-82
2023/10/19 12:49:39;;;;;;;0.60;0.60;;;14.70;99.90;;;;;;5073133;28;20864;-82
2023/10/19 12:52:07;;;;;;;0.90;0.60;;;14.70;99.90;;;;;;5073070;28;20921;-82
2023/10/19 12:54:34;;;;;;;1.23;0.80;;;14.70;99.90;;;;;;5073383;28;20496;-82
2023/10/19 12:57:03;;;;;;;0.80;0.80;;;14.70;99.90;;;;;;5073015;28;20461;-82